createdAt,value
2018-02-10T00:02:26.372Z,0.40
2018-02-10T00:04:54.007Z,0.40
2018-02-10T00:07:21.683Z,0.40
2018-02-10T00:09:49.344Z,0.40
2018-02-10T00:12:17.080Z,0.40
2018-02-10T00:14:44.706Z,0.40
2018-02-10T00:17:12.343Z,0.40
2018-02-10T00:19:40.063Z,0.40
2018-02-10T00:22:07.731Z,0.40
2018-02-10T00:24:35.400Z,0.40
2018-02-10T00:27:03.035Z,0.40
2018-02-10T00:29:30.723Z,0.40
2018-02-10T00:31:58.354Z,0.40
2018-02-10T00:34:25.982Z,0.40
2018-02-10T00:36:53.634Z,0.30
2018-02-10T00:39:21.245Z,0.30
2018-02-10T00:41:48.905Z,0.30
2018-02-10T00:44:16.587Z,0.30
2018-02-10T00:46:44.196Z,0.30
2018-02-10T00:49:11.873Z,0.30
2018-02-10T00:51:39.524Z,0.30
2018-02-10T00:54:07.971Z,0.30
2018-02-10T00:56:35.622Z,0.30
2018-02-10T00:59:04.030Z,0.30
2018-02-10T01:01:32.444Z,0.30
2018-02-10T01:04:00.051Z,0.30
2018-02-10T01:06:27.707Z,0.30
2018-02-10T01:08:58.076Z,0.30
2018-02-10T01:11:25.715Z,0.30
2018-02-10T01:13:53.359Z,0.30
2018-02-10T01:16:20.986Z,0.30
2018-02-10T01:18:48.679Z,0.30
2018-02-10T01:21:16.333Z,0.30
2018-02-10T01:23:43.963Z,0.30
2018-02-10T01:26:11.627Z,0.30
2018-02-10T01:28:39.233Z,0.30
2018-02-10T01:31:06.879Z,0.20
2018-02-10T01:33:34.546Z,0.20
2018-02-10T01:36:02.174Z,0.20
2018-02-10T01:38:29.848Z,0.30
2018-02-10T01:40:57.495Z,0.30
2018-02-10T01:43:25.927Z,0.30
2018-02-10T01:45:53.575Z,0.20
2018-02-10T01:48:21.191Z,0.30
2018-02-10T01:50:49.615Z,0.20
2018-02-10T01:53:18.010Z,0.20
2018-02-10T01:55:45.643Z,0.30
2018-02-10T01:58:13.425Z,0.20
2018-02-10T02:00:41.126Z,0.20
2018-02-10T02:03:08.760Z,0.20
2018-02-10T02:05:36.427Z,0.20
2018-02-10T02:08:04.147Z,0.20
2018-02-10T02:10:31.750Z,0.20
2018-02-10T02:12:59.407Z,0.20
2018-02-10T02:15:27.030Z,0.20
2018-02-10T02:17:54.962Z,0.20
2018-02-10T02:20:22.627Z,0.20
2018-02-10T02:22:50.268Z,0.20
2018-02-10T02:25:17.915Z,0.20
2018-02-10T02:27:49.593Z,0.30
2018-02-10T02:30:18.020Z,0.20
2018-02-10T02:32:45.696Z,0.30
2018-02-10T02:35:13.324Z,0.30
2018-02-10T02:37:40.984Z,0.20
2018-02-10T02:40:08.654Z,0.20
2018-02-10T02:42:36.340Z,0.20
2018-02-10T02:45:05.304Z,0.20
2018-02-10T02:47:32.933Z,0.20
2018-02-10T02:50:00.597Z,0.20
2018-02-10T02:52:28.223Z,0.20
2018-02-10T02:54:55.874Z,0.20
2018-02-10T02:57:23.551Z,0.20
2018-02-10T02:59:51.964Z,0.20
2018-02-10T03:02:19.644Z,0.20
2018-02-10T03:04:48.042Z,0.20
2018-02-10T03:07:15.703Z,0.20
2018-02-10T03:09:43.367Z,0.20
2018-02-10T03:12:11.004Z,0.20
2018-02-10T03:14:38.662Z,0.20
2018-02-10T03:17:07.042Z,0.20
2018-02-10T03:19:34.823Z,0.20
2018-02-10T03:22:02.484Z,0.20
2018-02-10T03:24:30.108Z,0.20
2018-02-10T03:26:58.535Z,0.20
2018-02-10T03:29:26.196Z,0.20
2018-02-10T03:31:53.867Z,0.20
2018-02-10T03:34:21.503Z,0.30
2018-02-10T03:36:49.176Z,0.20
2018-02-10T03:39:16.783Z,0.20
2018-02-10T03:41:44.503Z,0.20
2018-02-10T03:44:12.163Z,0.20
2018-02-10T03:46:39.810Z,0.30
2018-02-10T03:49:07.439Z,0.20
2018-02-10T03:51:35.087Z,0.20
2018-02-10T03:54:02.718Z,0.30
2018-02-10T03:56:30.366Z,0.30
2018-02-10T03:58:58.787Z,0.20
2018-02-10T04:01:26.410Z,0.20
2018-02-10T04:03:54.114Z,0.20
2018-02-10T04:06:21.766Z,0.20
2018-02-10T04:08:49.427Z,0.30
2018-02-10T04:11:17.096Z,0.30
2018-02-10T04:13:45.467Z,0.20
2018-02-10T04:16:13.134Z,0.20
2018-02-10T04:18:40.797Z,0.30
2018-02-10T04:21:28.143Z,0.30
2018-02-10T04:23:55.811Z,0.20
2018-02-10T04:26:23.591Z,0.20
2018-02-10T04:28:51.234Z,0.20
2018-02-10T04:31:18.867Z,0.20
2018-02-10T04:33:46.527Z,0.20
2018-02-10T04:36:14.182Z,0.20
2018-02-10T04:38:41.816Z,0.20
2018-02-10T04:41:09.487Z,0.20
2018-02-10T04:43:37.114Z,0.20
2018-02-10T04:46:05.518Z,0.20
2018-02-10T04:48:33.940Z,0.20
2018-02-10T04:51:01.579Z,0.20
2018-02-10T04:53:29.230Z,0.20
2018-02-10T04:55:56.866Z,0.20
2018-02-10T04:58:24.502Z,0.20
2018-02-10T05:00:52.179Z,0.20
2018-02-10T05:03:19.811Z,0.20
2018-02-10T05:05:47.485Z,0.20
2018-02-10T05:08:15.103Z,0.20
2018-02-10T05:10:43.534Z,0.20
2018-02-10T05:13:11.190Z,0.10
2018-02-10T05:15:39.714Z,0.10
2018-02-10T05:18:08.126Z,0.20
2018-02-10T05:20:36.515Z,0.10
2018-02-10T05:23:04.935Z,0.10
2018-02-10T05:25:33.355Z,0.10
2018-02-10T05:28:00.978Z,0.10
2018-02-10T05:30:28.659Z,0.10
2018-02-10T05:32:56.303Z,0.10
2018-02-10T05:35:23.947Z,0.10
2018-02-10T05:37:51.591Z,0.20
2018-02-10T05:40:19.231Z,0.10
2018-02-10T05:42:47.688Z,0.20
2018-02-10T05:45:15.320Z,0.10
2018-02-10T05:47:42.947Z,0.10
2018-02-10T05:50:10.591Z,0.10
2018-02-10T05:52:38.230Z,0.10
2018-02-10T05:55:05.908Z,0.10
2018-02-10T05:57:33.532Z,0.10
2018-02-10T06:00:01.195Z,0.10
2018-02-10T06:02:28.859Z,0.10
2018-02-10T06:04:56.456Z,0.10
2018-02-10T06:07:24.098Z,0.20
2018-02-10T06:09:51.737Z,0.10
2018-02-10T06:12:19.399Z,0.10
2018-02-10T06:14:47.076Z,0.10
2018-02-10T06:17:14.710Z,0.10
2018-02-10T06:19:42.376Z,0.10
2018-02-10T06:22:09.980Z,0.20
2018-02-10T06:24:37.638Z,0.10
2018-02-10T06:27:05.290Z,0.10
2018-02-10T06:29:32.907Z,0.10
2018-02-10T06:32:01.327Z,0.10
2018-02-10T06:34:29.718Z,0.10
2018-02-10T06:36:58.171Z,0.10
2018-02-10T06:39:25.811Z,0.10
2018-02-10T06:41:53.435Z,0.10
2018-02-10T06:44:21.083Z,0.10
2018-02-10T06:46:49.454Z,0.10
2018-02-10T06:49:17.111Z,0.10
2018-02-10T06:51:44.763Z,0.10
2018-02-10T06:54:13.146Z,0.10
2018-02-10T06:56:40.826Z,0.10
2018-02-10T06:59:08.460Z,0.10
2018-02-10T07:01:36.115Z,0.10
2018-02-10T07:04:03.747Z,0.10
2018-02-10T07:06:31.431Z,0.10
2018-02-10T07:08:59.084Z,0.10
2018-02-10T07:20:27.071Z,0.10
2018-02-10T07:22:54.755Z,0.10
2018-02-10T07:25:22.424Z,0.10
2018-02-10T07:27:50.049Z,0.10
2018-02-10T07:30:17.740Z,0.10
2018-02-10T07:32:45.350Z,0.10
2018-02-10T07:35:13.002Z,0.10
2018-02-10T07:37:40.679Z,0.10
2018-02-10T07:40:08.301Z,0.10
2018-02-10T07:42:35.964Z,0.10
2018-02-10T07:45:03.611Z,0.10
2018-02-10T07:47:32.060Z,0.20
2018-02-10T07:49:59.715Z,0.10
2018-02-10T07:52:28.112Z,0.20
2018-02-10T07:54:55.758Z,0.20
2018-02-10T07:57:23.399Z,0.20
2018-02-10T07:59:51.064Z,0.20
2018-02-10T08:02:19.478Z,0.20
2018-02-10T08:04:47.087Z,0.20
2018-02-10T08:07:15.252Z,0.20
2018-02-10T08:09:43.642Z,0.20
2018-02-10T08:12:12.050Z,0.20
2018-02-10T08:14:40.475Z,0.30
2018-02-10T08:17:08.111Z,0.30
2018-02-10T08:19:35.778Z,0.30
2018-02-10T08:22:03.430Z,0.30
2018-02-10T08:33:23.127Z,0.30
2018-02-10T08:35:50.801Z,0.30
2018-02-10T08:38:19.216Z,0.30
2018-02-10T08:40:46.905Z,0.30
2018-02-10T08:43:15.328Z,0.30
2018-02-10T08:45:43.755Z,0.40
2018-02-10T08:48:12.139Z,0.40
2018-02-10T08:50:40.601Z,0.40
2018-02-10T08:53:08.226Z,0.40
2018-02-10T08:55:35.875Z,0.40
2018-02-10T08:58:03.551Z,0.40
2018-02-10T09:15:10.811Z,0.50
2018-02-10T09:17:38.498Z,0.50
2018-02-10T09:20:06.185Z,0.50
2018-02-10T09:22:33.814Z,0.60
2018-02-10T09:25:01.509Z,0.60
2018-02-10T09:27:29.094Z,0.60
2018-02-10T09:29:56.694Z,0.60
2018-02-10T09:32:24.298Z,0.60
2018-02-10T09:34:52.636Z,0.70
2018-02-10T09:37:20.266Z,0.70
2018-02-10T09:39:47.902Z,0.70
2018-02-10T09:42:15.546Z,0.70
2018-02-10T09:44:43.995Z,0.80
2018-02-10T09:47:11.639Z,0.80
2018-02-10T09:49:40.559Z,0.80
2018-02-10T09:52:09.007Z,0.90
2018-02-10T09:54:36.768Z,0.80
2018-02-10T09:57:04.400Z,0.90
2018-02-10T09:59:32.106Z,0.90
2018-02-10T10:02:09.431Z,0.90
2018-02-10T10:04:37.123Z,0.90
2018-02-10T10:07:04.779Z,0.90
2018-02-10T10:09:32.404Z,1.00
2018-02-10T10:12:00.072Z,1.00
2018-02-10T10:14:27.653Z,1.00
2018-02-10T10:16:55.262Z,1.10
2018-02-10T10:19:22.869Z,1.10
2018-02-10T10:21:51.210Z,1.20
2018-02-10T10:24:18.826Z,1.20
2018-02-10T10:26:46.397Z,1.20
2018-02-10T10:29:14.030Z,1.20
2018-02-10T10:31:41.630Z,1.20
2018-02-10T10:34:09.973Z,1.30
2018-02-10T10:39:34.007Z,1.30
2018-02-10T10:42:01.899Z,1.40
2018-02-10T10:44:30.174Z,1.40
2018-02-10T10:46:57.746Z,1.40
2018-02-10T10:49:25.342Z,1.50
2018-02-10T10:51:52.918Z,1.50
2018-02-10T10:54:20.518Z,1.60
2018-02-10T10:56:48.097Z,1.60
2018-02-10T10:59:15.847Z,1.60
2018-02-10T11:01:43.518Z,1.70
2018-02-10T11:04:11.118Z,1.70
2018-02-10T11:06:38.742Z,1.70
2018-02-10T11:09:06.355Z,1.70
2018-02-10T11:11:34.731Z,1.80
2018-02-10T11:14:02.302Z,1.70
2018-02-10T11:16:29.902Z,1.80
2018-02-10T11:18:57.474Z,1.80
2018-02-10T11:21:25.081Z,1.90
2018-02-10T11:23:52.814Z,1.90
2018-02-10T11:26:20.418Z,1.90
2018-02-10T11:28:48.134Z,2.00
2018-02-10T11:31:15.706Z,2.00
2018-02-10T11:33:43.306Z,2.10
2018-02-10T11:36:10.873Z,2.10
2018-02-10T11:38:38.470Z,2.10
2018-02-10T11:41:06.049Z,2.20
2018-02-10T11:43:35.049Z,2.20
2018-02-10T11:46:03.025Z,2.20
2018-02-10T11:48:30.671Z,2.30
2018-02-10T11:50:58.270Z,2.30
2018-02-10T11:53:26.605Z,2.40
2018-02-10T11:55:54.241Z,2.40
2018-02-10T11:58:21.805Z,2.50
2018-02-10T12:00:49.402Z,2.50
2018-02-10T12:03:17.797Z,2.70
2018-02-10T12:05:45.374Z,2.60
2018-02-10T12:08:12.978Z,2.70
2018-02-10T12:10:40.558Z,2.70
2018-02-10T12:13:08.169Z,2.70
2018-02-10T12:15:35.744Z,2.80
2018-02-10T12:18:03.346Z,2.80
2018-02-10T12:20:30.917Z,2.80
2018-02-10T12:22:58.518Z,2.90
2018-02-10T12:25:26.139Z,2.90
2018-02-10T12:27:53.726Z,2.90
2018-02-10T12:30:21.327Z,2.90
2018-02-10T12:32:49.201Z,2.90
2018-02-10T12:35:29.370Z,3.00
2018-02-10T12:37:56.944Z,3.00
2018-02-10T12:40:25.340Z,3.00
2018-02-10T12:42:53.722Z,3.00
2018-02-10T12:45:21.483Z,3.00
2018-02-10T12:48:04.727Z,3.00
2018-02-10T12:50:32.367Z,3.10
2018-02-10T12:53:00.388Z,3.10
2018-02-10T12:55:28.026Z,3.10
2018-02-10T12:57:55.680Z,3.00
2018-02-10T13:00:23.323Z,3.00
2018-02-10T13:02:50.984Z,3.00
2018-02-10T13:05:22.748Z,3.00
2018-02-10T13:07:50.430Z,3.00
2018-02-10T13:10:18.018Z,3.00
2018-02-10T13:12:45.617Z,2.90
2018-02-10T13:15:13.233Z,2.90
2018-02-10T13:17:40.818Z,2.90
2018-02-10T13:20:08.419Z,2.90
2018-02-10T13:22:35.998Z,2.90
2018-02-10T13:25:03.776Z,2.90
2018-02-10T13:27:31.362Z,2.90
2018-02-10T13:29:58.987Z,2.80
2018-02-10T13:32:26.558Z,2.80
2018-02-10T13:34:54.162Z,2.80
2018-02-10T13:37:21.762Z,2.80
2018-02-10T13:39:50.093Z,2.80
2018-02-10T13:42:17.699Z,2.80
2018-02-10T13:44:46.038Z,2.80
2018-02-10T13:47:13.634Z,2.80
2018-02-10T13:49:41.788Z,2.80
2018-02-10T13:52:10.237Z,2.90
2018-02-10T13:54:37.837Z,2.90
2018-02-10T13:57:05.422Z,2.90
2018-02-10T13:59:33.022Z,2.90
2018-02-10T14:02:00.594Z,2.90
2018-02-10T14:04:28.217Z,2.90
2018-02-10T14:06:56.549Z,2.80
2018-02-10T14:09:24.146Z,2.80
2018-02-10T14:11:51.747Z,2.80
2018-02-10T14:14:19.321Z,2.80
2018-02-10T14:16:46.917Z,2.80
2018-02-10T14:19:14.502Z,2.80
2018-02-10T14:21:42.106Z,2.80
2018-02-10T14:24:09.718Z,2.80
2018-02-10T14:26:38.053Z,2.70
2018-02-10T14:29:05.651Z,2.70
2018-02-10T14:31:33.230Z,2.70
2018-02-10T14:34:00.825Z,2.70
2018-02-10T14:36:28.394Z,2.70
2018-02-10T14:38:57.114Z,2.70
2018-02-10T14:41:24.681Z,2.60
2018-02-10T14:43:52.285Z,2.70
2018-02-10T14:46:19.867Z,2.70
2018-02-10T14:48:47.465Z,2.60
2018-02-10T14:51:15.039Z,2.60
2018-02-10T14:53:42.638Z,2.60
2018-02-10T14:56:10.242Z,2.60
2018-02-10T14:58:37.830Z,2.60
2018-02-10T15:01:05.431Z,2.50
2018-02-10T15:03:33.781Z,2.40
2018-02-10T15:06:01.393Z,2.40
2018-02-10T15:08:30.515Z,2.40
2018-02-10T15:14:01.270Z,2.40
2018-02-10T15:16:28.882Z,2.40
2018-02-10T15:18:57.538Z,2.40
2018-02-10T15:21:25.132Z,2.30
2018-02-10T15:23:52.729Z,2.30
2018-02-10T15:26:20.425Z,2.30
2018-02-10T15:28:48.154Z,2.20
2018-02-10T15:31:25.885Z,2.20
2018-02-10T15:37:18.039Z,2.20
2018-02-10T15:39:45.678Z,2.20
2018-02-10T15:42:13.267Z,2.10
2018-02-10T15:44:40.982Z,2.10
2018-02-10T15:52:54.948Z,2.10
2018-02-10T15:55:22.786Z,2.00
2018-02-10T15:57:50.386Z,2.00
2018-02-10T16:00:18.721Z,2.00
2018-02-10T16:02:46.327Z,2.00
2018-02-10T16:05:13.906Z,2.00
2018-02-10T16:07:41.512Z,1.90
2018-02-10T16:10:09.323Z,1.90
2018-02-10T16:12:39.895Z,1.90
2018-02-10T16:15:07.538Z,1.90
2018-02-10T16:17:35.983Z,1.90
2018-02-10T16:20:04.115Z,1.90
2018-02-10T16:22:31.766Z,1.90
2018-02-10T16:24:59.570Z,1.80
2018-02-10T16:27:27.403Z,1.80
2018-02-10T16:29:55.359Z,1.80
2018-02-10T16:41:03.579Z,1.70
2018-02-10T16:43:31.186Z,1.70
2018-02-10T16:45:58.790Z,1.70
2018-02-10T16:48:26.404Z,1.70
2018-02-10T16:50:54.056Z,1.70
2018-02-10T16:53:22.872Z,1.60
2018-02-10T16:55:50.566Z,1.60
2018-02-10T16:58:18.975Z,1.60
2018-02-10T17:00:47.366Z,1.60
2018-02-10T17:03:14.976Z,1.60
2018-02-10T17:06:00.219Z,1.50
2018-02-10T17:08:27.899Z,1.50
2018-02-10T17:10:55.511Z,1.50
2018-02-10T17:13:23.117Z,1.50
2018-02-10T17:15:50.718Z,1.50
2018-02-10T17:18:19.090Z,1.50
2018-02-10T17:20:46.666Z,1.40
2018-02-10T17:23:14.274Z,1.50
2018-02-10T17:25:42.927Z,1.40
2018-02-10T17:28:10.551Z,1.40
2018-02-10T17:30:38.130Z,1.40
2018-02-10T17:33:05.735Z,1.40
2018-02-10T17:35:33.371Z,1.40
2018-02-10T17:38:00.954Z,1.40
2018-02-10T17:43:41.243Z,1.40
2018-02-10T17:46:09.602Z,1.30
2018-02-10T17:48:37.274Z,1.30
2018-02-10T17:51:04.977Z,1.30
2018-02-10T17:53:33.829Z,1.30
2018-02-10T17:56:02.101Z,1.30
2018-02-10T17:58:29.815Z,1.30
2018-02-10T18:03:50.659Z,1.30
2018-02-10T18:06:18.342Z,1.30
2018-02-10T18:08:46.272Z,1.30
2018-02-10T18:11:15.689Z,1.30
2018-02-10T18:13:43.363Z,1.30
2018-02-10T18:16:10.974Z,1.30
2018-02-10T18:18:38.627Z,1.30
2018-02-10T18:21:08.111Z,1.30
2018-02-10T18:23:35.778Z,1.20
2018-02-10T18:26:04.453Z,1.20
2018-02-10T18:28:32.910Z,1.20
2018-02-10T18:31:00.562Z,1.20
2018-02-10T18:33:28.980Z,1.30
2018-02-10T18:35:56.592Z,1.20
2018-02-10T18:38:24.256Z,1.20
2018-02-10T18:40:51.918Z,1.20
2018-02-10T18:43:20.290Z,1.20
2018-02-10T18:45:47.923Z,1.20
2018-02-10T18:48:15.538Z,1.20
2018-02-10T18:50:43.187Z,1.20
2018-02-10T18:53:10.819Z,1.20
2018-02-10T18:55:38.478Z,1.20
2018-02-10T18:58:06.105Z,1.20
2018-02-10T19:00:33.753Z,1.20
2018-02-10T19:03:01.380Z,1.20
2018-02-10T19:05:29.152Z,1.20
2018-02-10T19:07:56.828Z,1.20
2018-02-10T19:10:25.298Z,1.20
2018-02-10T19:12:52.897Z,1.20
2018-02-10T19:15:21.062Z,1.20
2018-02-10T19:17:48.744Z,1.20
2018-02-10T19:20:16.321Z,1.10
2018-02-10T19:22:43.922Z,1.10
2018-02-10T19:25:11.497Z,1.10
2018-02-10T19:27:39.174Z,1.10
2018-02-10T19:30:06.794Z,1.10
2018-02-10T19:32:34.366Z,1.10
2018-02-10T19:35:01.974Z,1.10
2018-02-10T19:37:29.581Z,1.10
2018-02-10T19:39:57.153Z,1.10
2018-02-10T19:42:24.763Z,1.10
2018-02-10T19:44:53.111Z,1.10
2018-02-10T19:47:20.723Z,1.10
2018-02-10T19:49:48.472Z,1.10
2018-02-10T19:52:16.900Z,1.10
2018-02-10T19:54:44.578Z,1.00
2018-02-10T19:57:12.194Z,1.00
2018-02-10T19:59:39.778Z,1.00
2018-02-10T20:02:07.394Z,1.00
2018-02-10T20:04:35.738Z,1.00
2018-02-10T20:07:06.337Z,1.00
2018-02-10T20:09:38.116Z,1.00
2018-02-10T20:12:07.101Z,1.00
2018-02-10T20:14:34.857Z,1.00
2018-02-10T20:17:16.529Z,1.00
2018-02-10T20:19:49.406Z,1.00
2018-02-10T20:22:19.180Z,1.00
2018-02-10T20:24:51.918Z,1.00
2018-02-10T20:27:26.849Z,1.00
2018-02-10T20:29:54.948Z,1.00
2018-02-10T20:32:26.124Z,1.00
2018-02-10T20:34:54.298Z,1.00
2018-02-10T20:37:26.153Z,1.00
2018-02-10T20:39:59.543Z,0.90
2018-02-10T20:42:30.136Z,0.90
2018-02-10T20:44:58.439Z,0.90
2018-02-10T20:47:27.479Z,1.00
2018-02-10T20:49:59.215Z,0.90
2018-02-10T20:52:29.055Z,0.90
2018-02-10T20:54:58.927Z,0.90
2018-02-10T20:57:29.669Z,0.90
2018-02-10T21:00:02.904Z,0.90
2018-02-10T21:05:06.656Z,0.90
2018-02-10T21:07:39.474Z,0.90
2018-02-10T21:10:09.412Z,0.90
2018-02-10T21:12:37.159Z,0.90
2018-02-10T21:15:06.107Z,0.90
2018-02-10T21:17:35.296Z,0.90
2018-02-10T21:20:07.207Z,0.80
2018-02-10T21:22:35.443Z,0.80
2018-02-10T21:25:03.358Z,0.80
2018-02-10T21:27:31.584Z,0.80
2018-02-10T21:30:06.518Z,0.80
2018-02-10T21:32:34.769Z,0.80
2018-02-10T21:37:53.530Z,0.80
2018-02-10T21:40:24.957Z,0.80
2018-02-10T21:42:57.611Z,0.80
2018-02-10T21:45:26.327Z,0.80
2018-02-10T21:47:55.341Z,0.80
2018-02-10T21:50:23.714Z,0.80
2018-02-10T21:52:51.286Z,0.80
2018-02-10T21:55:18.890Z,0.80
2018-02-10T21:58:04.235Z,0.80
2018-02-10T22:00:31.833Z,0.80
2018-02-10T22:03:06.538Z,0.80
2018-02-10T22:05:34.365Z,0.80
2018-02-10T22:08:04.982Z,0.80
2018-02-10T22:10:36.439Z,0.80
2018-02-10T22:13:04.027Z,0.80
2018-02-10T22:15:34.130Z,0.80
2018-02-10T22:18:06.529Z,0.80
2018-02-10T22:20:36.171Z,0.80
2018-02-10T22:23:05.490Z,0.80
2018-02-10T22:25:35.026Z,0.80
2018-02-10T22:28:05.382Z,0.80
2018-02-10T22:30:41.351Z,0.80
2018-02-10T22:33:17.786Z,0.80
2018-02-10T22:35:45.817Z,0.80
2018-02-10T22:38:17.818Z,0.80
2018-02-10T22:40:46.870Z,0.80
2018-02-10T22:43:17.741Z,0.80
2018-02-10T22:45:46.886Z,0.80
2018-02-10T22:48:15.177Z,0.70
2018-02-10T22:55:51.824Z,0.80
2018-02-10T22:58:22.393Z,0.80
2018-02-10T23:00:53.234Z,0.80
2018-02-10T23:03:24.205Z,0.80
2018-02-10T23:05:56.685Z,0.80
2018-02-10T23:11:08.555Z,0.80
2018-02-10T23:13:37.417Z,0.80
2018-02-10T23:16:07.945Z,0.80
2018-02-10T23:18:41.856Z,0.80
2018-02-10T23:21:12.489Z,0.80
2018-02-10T23:23:50.986Z,0.80
2018-02-10T23:26:19.409Z,0.80
2018-02-10T23:28:49.857Z,0.80
2018-02-10T23:31:20.849Z,0.80
2018-02-10T23:33:49.214Z,0.80
2018-02-10T23:36:19.737Z,0.80
2018-02-10T23:38:47.314Z,0.80
2018-02-10T23:41:14.920Z,0.80
2018-02-10T23:43:42.523Z,0.80
2018-02-10T23:46:10.135Z,0.80
2018-02-10T23:48:37.710Z,0.80
2018-02-10T23:51:05.313Z,0.80
2018-02-10T23:53:41.835Z,0.80
2018-02-10T23:56:10.251Z,0.80
2018-02-10T23:58:37.941Z,0.80
